Time;durP1;ratioP1;P1;durP2;ratioP2;P2;SDS_P1;SDS_P2;PMS_P1;PMS_P2;Temp;Humidity;BMP_temperature;BMP_pressure;BME280_temperature;BME280_humidity;BME280_pressure;Samples;Min_cycle;Max_cycle;Signal;HPM_P1;HPM_P2
2021/12/23 00:00:29;;;;;;;65.10;36.67;;;-4.00;99.90;;;;;;5092255;28;20021;-61
2021/12/23 00:02:55;;;;;;;67.90;38.60;;;-4.00;99.90;;;;;;5073853;28;20024;-60
2021/12/23 00:05:20;;;;;;;69.07;36.80;;;-3.90;99.90;;;;;;5092190;28;20032;-61
2021/12/23 00:07:46;;;;;;;63.58;37.42;;;-3.90;99.90;;;;;;5090671;28;20027;-61
2021/12/23 00:10:11;;;;;;;62.50;36.33;;;-3.90;99.90;;;;;;5091897;28;20123;-61
2021/12/23 00:12:41;;;;;;;76.15;39.58;;;-3.90;99.90;;;;;;5073994;28;20107;-61
2021/12/23 00:15:15;;;;;;;67.65;36.72;;;-3.90;99.90;;;;;;5091056;28;20016;-61
2021/12/23 00:25:34;;;;;;;62.08;34.63;;;-3.90;99.90;;;;;;5091953;28;20043;-60
2021/12/23 00:28:00;;;;;;;62.80;37.22;;;-3.90;99.90;;;;;;5073713;28;20115;-61
2021/12/23 00:30:26;;;;;;;54.45;32.35;;;-4.00;99.90;;;;;;5090789;28;20103;-61
2021/12/23 00:32:55;;;;;;;69.25;36.00;;;-4.00;99.90;;;;;;5073216;28;20043;-60
2021/12/23 00:35:21;;;;;;;58.60;33.80;;;-4.00;99.90;;;;;;5073377;28;20020;-61
2021/12/23 00:37:48;;;;;;;65.72;35.42;;;-4.00;99.90;;;;;;5091608;28;20046;-61
2021/12/23 00:40:16;;;;;;;69.93;36.90;;;-4.00;99.90;;;;;;5091419;28;20367;-61
2021/12/23 00:42:42;;;;;;;71.22;36.25;;;-4.00;99.90;;;;;;5091473;28;20023;-60
2021/12/23 00:45:09;;;;;;;63.58;36.38;;;-4.00;99.90;;;;;;5091537;28;20024;-61
2021/12/23 00:47:35;;;;;;;77.50;37.97;;;-3.90;99.90;;;;;;5091378;28;20036;-61
2021/12/23 00:50:01;;;;;;;68.43;38.47;;;-3.90;99.90;;;;;;5073221;28;20024;-60
2021/12/23 00:52:34;;;;;;;74.43;41.45;;;-3.80;99.90;;;;;;5091324;28;20072;-60
2021/12/23 00:55:00;;;;;;;;;;;-3.90;99.90;;;;;;5091853;28;20032;-61
2021/12/23 00:57:28;;;;;;;67.05;37.17;;;-3.80;99.90;;;;;;5072866;28;19912;-61
2021/12/23 00:59:55;;;;;;;76.25;38.00;;;-3.90;99.90;;;;;;5091243;28;20028;-60
2021/12/23 01:02:25;;;;;;;72.65;39.13;;;-3.90;99.90;;;;;;5091116;28;20016;-61
2021/12/23 01:04:51;;;;;;;78.40;43.67;;;-3.80;99.90;;;;;;5090827;28;20480;-60
2021/12/23 01:07:17;;;;;;;96.95;50.63;;;-3.80;99.90;;;;;;5091225;28;20024;-61
2021/12/23 01:09:42;;;;;;;80.55;42.50;;;-3.80;99.90;;;;;;5091113;28;20016;-60
2021/12/23 01:12:11;;;;;;;67.63;37.85;;;-3.80;99.90;;;;;;5090959;28;20024;-61
2021/12/23 01:14:55;;;;;;;62.08;34.85;;;-3.70;99.90;;;;;;5090939;28;20016;-61
2021/12/23 01:19:52;;;;;;;68.22;38.13;;;-3.90;99.90;;;;;;5091034;28;19904;-60
2021/12/23 01:22:20;;;;;;;67.80;36.67;;;-3.90;99.90;;;;;;5090629;28;20479;-60
2021/12/23 01:24:46;;;;;;;68.47;35.95;;;-3.90;99.90;;;;;;5090861;28;20077;-61
2021/12/23 01:27:13;;;;;;;61.40;36.33;;;-3.90;99.90;;;;;;5090681;28;20153;-61
2021/12/23 01:29:38;;;;;;;65.85;34.00;;;-3.80;99.90;;;;;;5090727;28;20031;-60
2021/12/23 01:32:06;;;;;;;69.82;36.47;;;-3.90;99.90;;;;;;5090658;28;20020;-60
2021/12/23 01:34:33;;;;;;;68.68;35.53;;;-3.90;99.90;;;;;;5072530;28;20077;-60
2021/12/23 01:37:04;;;;;;;65.32;35.63;;;-3.90;99.90;;;;;;5089774;28;20027;-61
2021/12/23 01:39:30;;;;;;;66.38;36.22;;;-3.90;99.90;;;;;;5089565;28;20398;-60
2021/12/23 01:41:56;;;;;;;74.75;37.58;;;-3.90;99.90;;;;;;5072077;28;20482;-60
2021/12/23 01:44:22;;;;;;;63.67;36.80;;;-3.90;99.90;;;;;;5089968;28;20062;-60
2021/12/23 01:46:48;;;;;;;76.18;37.53;;;-4.00;99.90;;;;;;5090109;28;20021;-61
2021/12/23 01:49:13;;;;;;;68.75;35.58;;;-4.00;99.90;;;;;;5090014;28;20395;-60
2021/12/23 01:51:39;;;;;;;70.75;36.53;;;-4.10;99.90;;;;;;5089859;28;20267;-60
2021/12/23 01:54:05;;;;;;;65.70;35.97;;;-4.00;99.90;;;;;;5089979;28;20035;-60
2021/12/23 01:56:31;;;;;;;78.40;37.72;;;-4.00;99.90;;;;;;5089979;28;20031;-60
2021/12/23 01:58:57;;;;;;;73.35;36.13;;;-4.00;99.90;;;;;;5089644;28;20027;-60
2021/12/23 02:01:23;;;;;;;74.47;38.45;;;-4.00;99.90;;;;;;5089619;28;20032;-60
2021/12/23 02:03:49;;;;;;;76.00;38.35;;;-4.00;99.90;;;;;;5089523;28;20047;-60
2021/12/23 02:06:15;;;;;;;63.45;35.45;;;-4.00;99.90;;;;;;5071529;28;20463;-60
2021/12/23 02:08:42;;;;;;;75.40;38.38;;;-4.00;99.90;;;;;;5089356;28;20393;-60
2021/12/23 02:11:09;;;;;;;75.50;37.55;;;-4.00;99.90;;;;;;5093278;28;20057;-60
2021/12/23 02:13:35;;;;;;;80.10;39.42;;;-4.00;99.90;;;;;;5093620;28;20031;-60
2021/12/23 02:55:47;;;;;;;93.07;39.03;;;-4.20;99.90;;;;;;5088184;28;20097;-61
2021/12/23 02:58:13;;;;;;;77.53;39.55;;;-4.20;99.90;;;;;;5093435;28;20039;-61
2021/12/23 03:00:41;;;;;;;110.82;39.72;;;-4.20;99.90;;;;;;5092603;28;20531;-60
2021/12/23 03:03:06;;;;;;;120.63;39.70;;;-4.20;99.90;;;;;;5092980;28;20111;-60
2021/12/23 03:05:32;;;;;;;118.40;39.47;;;-4.20;99.90;;;;;;5093497;28;20472;-61
2021/12/23 03:08:01;;;;;;;107.75;41.17;;;-4.20;99.90;;;;;;5093737;28;20042;-61
2021/12/23 03:10:27;;;;;;;67.60;37.83;;;-4.10;99.90;;;;;;5094207;28;20114;-60
2021/12/23 03:12:53;;;;;;;84.40;39.45;;;-4.10;99.90;;;;;;5094150;28;20056;-60
2021/12/23 03:15:20;;;;;;;73.90;36.05;;;-4.10;99.90;;;;;;5093336;28;20030;-60
2021/12/23 03:17:45;;;;;;;73.20;39.55;;;-4.10;99.90;;;;;;5094310;28;20470;-60
2021/12/23 03:20:12;;;;;;;79.50;39.40;;;-4.10;99.90;;;;;;5094017;28;20039;-60
2021/12/23 03:22:37;;;;;;;68.95;36.13;;;-4.10;99.90;;;;;;5093541;28;20026;-61
2021/12/23 03:25:03;;;;;;;70.75;35.45;;;-4.10;99.90;;;;;;5094286;28;20027;-61
2021/12/23 03:27:30;;;;;;;60.67;34.15;;;-4.10;99.90;;;;;;5093839;28;20036;-60
2021/12/23 03:29:56;;;;;;;77.32;33.42;;;-4.00;99.90;;;;;;5094113;28;20518;-61
2021/12/23 03:32:23;;;;;;;59.78;34.78;;;-4.00;99.90;;;;;;5093887;28;20029;-60
2021/12/23 03:34:50;;;;;;;58.13;33.35;;;-4.10;99.90;;;;;;5094024;28;20016;-60
2021/12/23 03:37:15;;;;;;;63.13;34.67;;;-4.10;99.90;;;;;;5075284;28;20036;-60
2021/12/23 03:39:41;;;;;;;77.28;37.28;;;-4.10;99.90;;;;;;5093406;28;20493;-60
2021/12/23 03:42:07;;;;;;;69.90;36.28;;;-4.00;99.90;;;;;;5074634;28;20031;-61
2021/12/23 03:44:33;;;;;;;104.70;37.33;;;-3.90;99.90;;;;;;5093416;28;20026;-61
2021/12/23 03:46:59;;;;;;;76.63;39.63;;;-4.00;99.90;;;;;;5093944;28;20028;-60
2021/12/23 03:49:25;;;;;;;66.88;35.78;;;-4.00;99.90;;;;;;5093675;28;20028;-60
2021/12/23 03:51:51;;;;;;;76.80;39.15;;;-4.10;99.90;;;;;;5093820;28;20024;-60
2021/12/23 03:54:16;;;;;;;65.70;36.85;;;-4.10;99.90;;;;;;5074859;28;20046;-61
2021/12/23 03:56:44;;;;;;;72.20;34.60;;;-4.10;99.90;;;;;;5092167;28;20020;-60
2021/12/23 03:59:10;;;;;;;62.17;34.35;;;-4.10;99.90;;;;;;5092338;28;20111;-60
2021/12/23 04:01:36;;;;;;;68.00;33.05;;;-4.00;99.90;;;;;;5074301;28;20024;-61
2021/12/23 04:04:02;;;;;;;64.35;33.33;;;-4.00;99.90;;;;;;5092185;28;20034;-60
2021/12/23 04:06:28;;;;;;;60.40;33.70;;;-4.00;99.90;;;;;;5091978;28;20031;-61
2021/12/23 04:08:54;;;;;;;64.97;31.52;;;-4.10;99.90;;;;;;5092460;28;20024;-60
2021/12/23 04:11:21;;;;;;;62.38;32.35;;;-4.10;99.90;;;;;;5091873;28;20120;-60
2021/12/23 04:13:46;;;;;;;68.20;36.67;;;-4.20;99.90;;;;;;5092006;28;20032;-61
2021/12/23 04:16:12;;;;;;;70.03;35.03;;;-4.10;99.90;;;;;;5092148;28;20032;-61
2021/12/23 04:18:38;;;;;;;63.95;34.45;;;-4.10;99.90;;;;;;5092081;28;20047;-61
2021/12/23 04:21:04;;;;;;;71.93;34.88;;;-4.10;99.90;;;;;;5091956;28;20024;-60
2021/12/23 04:23:31;;;;;;;67.93;35.47;;;-4.10;99.90;;;;;;5074130;28;20031;-61
2021/12/23 04:25:58;;;;;;;67.45;34.33;;;-4.20;99.90;;;;;;5092935;28;20047;-61
2021/12/23 04:28:25;;;;;;;64.72;33.63;;;-4.20;99.90;;;;;;5092067;28;20031;-61
2021/12/23 04:30:52;;;;;;;86.47;33.63;;;-4.30;99.90;;;;;;5092825;28;20028;-61
2021/12/23 04:33:18;;;;;;;72.82;35.15;;;-4.30;99.90;;;;;;5092036;28;20490;-60
2021/12/23 04:35:44;;;;;;;72.85;36.60;;;-4.30;99.90;;;;;;5092736;28;20114;-61
2021/12/23 04:38:09;;;;;;;75.78;36.38;;;-4.40;99.90;;;;;;5092749;28;20113;-61
2021/12/23 04:40:37;;;;;;;64.20;34.05;;;-4.40;99.90;;;;;;5091503;28;20024;-60
2021/12/23 04:43:05;;;;;;;62.95;34.20;;;-4.30;99.90;;;;;;5091263;28;20433;-60
2021/12/23 04:45:32;;;;;;;70.35;36.53;;;-4.30;99.90;;;;;;5091315;28;20024;-60
2021/12/23 04:47:58;;;;;;;63.25;34.15;;;-4.40;99.90;;;;;;5091526;28;20028;-61
2021/12/23 04:50:24;;;;;;;59.10;31.70;;;-4.30;99.90;;;;;;5073002;28;20022;-61
2021/12/23 04:52:51;;;;;;;67.50;34.53;;;-4.30;99.90;;;;;;5091995;28;20028;-60
2021/12/23 04:55:17;;;;;;;62.88;35.05;;;-4.30;99.90;;;;;;5091881;28;20078;-60
2021/12/23 04:57:44;;;;;;;58.67;34.08;;;-4.30;99.90;;;;;;5092505;28;20055;-61
2021/12/23 05:00:14;;;;;;;61.50;33.97;;;-4.20;99.90;;;;;;5092358;28;20024;-61
2021/12/23 05:02:40;;;;;;;64.07;34.75;;;-4.30;99.90;;;;;;5092608;28;20012;-60
2021/12/23 05:05:06;;;;;;;62.35;34.17;;;-4.20;99.90;;;;;;5092417;28;20418;-60
2021/12/23 05:07:32;;;;;;;71.15;36.97;;;-4.20;99.90;;;;;;5092047;28;20031;-61
2021/12/23 05:09:57;;;;;;;69.53;34.30;;;-4.20;99.90;;;;;;5092205;28;20020;-60
2021/12/23 05:12:23;;;;;;;71.30;35.20;;;-4.20;99.90;;;;;;5092054;28;20028;-60
2021/12/23 05:14:49;;;;;;;64.25;37.25;;;-4.20;99.90;;;;;;5092145;28;20024;-60
2021/12/23 05:17:14;;;;;;;61.53;34.08;;;-4.20;99.90;;;;;;5090995;28;20024;-60
2021/12/23 05:19:40;;;;;;;59.55;34.65;;;-4.10;99.90;;;;;;5091365;28;20028;-60
2021/12/23 05:22:05;;;;;;;62.83;33.67;;;-4.00;99.90;;;;;;5091823;28;20058;-60
2021/12/23 05:24:32;;;;;;;57.40;32.83;;;-4.00;99.90;;;;;;5091580;28;20024;-60
2021/12/23 05:26:58;;;;;;;55.25;30.27;;;-4.00;99.90;;;;;;5091410;28;20472;-60
2021/12/23 05:29:23;;;;;;;58.80;31.65;;;-4.10;99.90;;;;;;5072329;28;20043;-60
2021/12/23 05:31:49;;;;;;;68.47;36.97;;;-4.20;99.90;;;;;;5090409;28;20024;-60
2021/12/23 05:34:15;;;;;;;61.55;31.92;;;-4.10;99.90;;;;;;5090643;28;20035;-60
2021/12/23 05:36:41;;;;;;;54.65;31.70;;;-4.20;99.90;;;;;;5090658;28;20047;-60
2021/12/23 05:39:08;;;;;;;61.88;33.45;;;-4.20;99.90;;;;;;5090328;28;20099;-61
2021/12/23 05:41:34;;;;;;;63.60;31.60;;;-4.30;99.90;;;;;;5090661;28;20031;-60
2021/12/23 05:43:59;;;;;;;51.22;32.55;;;-4.30;99.90;;;;;;5089663;28;20028;-60
2021/12/23 05:46:25;;;;;;;66.13;32.60;;;-4.30;99.90;;;;;;5090104;28;20020;-60
2021/12/23 05:48:51;;;;;;;58.75;32.22;;;-4.30;99.90;;;;;;5090474;28;20040;-60
2021/12/23 05:51:17;;;;;;;61.63;31.27;;;-4.20;99.90;;;;;;5090589;28;20084;-60
2021/12/23 05:53:43;;;;;;;77.68;34.78;;;-4.20;99.90;;;;;;5072175;28;20412;-60
2021/12/23 05:56:08;;;;;;;59.58;31.75;;;-4.20;99.90;;;;;;5090280;28;20032;-60
2021/12/23 05:58:34;;;;;;;67.97;32.08;;;-4.20;99.90;;;;;;5090395;28;20028;-60
2021/12/23 06:01:00;;;;;;;62.05;32.25;;;-4.20;99.90;;;;;;5090658;28;20032;-60
2021/12/23 06:03:26;;;;;;;54.08;30.55;;;-4.20;99.90;;;;;;5072045;28;20593;-60
2021/12/23 06:05:52;;;;;;;60.22;31.52;;;-4.20;99.90;;;;;;5090384;28;20072;-60
2021/12/23 06:08:18;;;;;;;54.50;30.23;;;-4.20;99.90;;;;;;5089976;28;20095;-60
2021/12/23 06:10:44;;;;;;;67.43;35.65;;;-4.30;99.90;;;;;;5071989;28;20012;-60
2021/12/23 06:13:09;;;;;;;61.67;31.52;;;-4.30;99.90;;;;;;5090183;28;20099;-60
2021/12/23 06:15:35;;;;;;;63.10;32.10;;;-4.20;99.90;;;;;;5090396;28;20035;-60
2021/12/23 06:18:01;;;;;;;62.53;32.47;;;-4.30;99.90;;;;;;5072191;28;20031;-60
2021/12/23 06:20:27;;;;;;;106.70;31.33;;;-4.30;99.90;;;;;;5090443;28;20185;-60
2021/12/23 06:22:53;;;;;;;71.55;33.28;;;-4.40;99.90;;;;;;5090068;28;20024;-60
2021/12/23 06:25:18;;;;;;;58.35;30.77;;;-4.40;99.90;;;;;;5089968;28;20048;-60
2021/12/23 06:27:44;;;;;;;55.42;31.08;;;-4.40;99.90;;;;;;5090147;28;20274;-61
2021/12/23 06:30:18;;;;;;;57.90;32.35;;;-4.30;99.90;;;;;;5090102;28;20047;-60
2021/12/23 06:32:49;;;;;;;54.70;28.70;;;-4.40;99.90;;;;;;5090328;28;20099;-60
2021/12/23 06:35:15;;;;;;;56.38;29.77;;;-4.40;99.90;;;;;;5090033;28;20055;-60
2021/12/23 06:37:42;;;;;;;61.95;30.38;;;-4.50;99.90;;;;;;5090261;28;20686;-60
2021/12/23 06:40:09;;;;;;;56.60;30.55;;;-4.50;99.90;;;;;;5071852;28;20057;-60
2021/12/23 06:42:35;;;;;;;49.03;29.88;;;-4.50;99.90;;;;;;5089986;28;20110;-61
2021/12/23 06:45:01;;;;;;;52.08;28.77;;;-4.50;99.90;;;;;;5089993;28;20119;-60
2021/12/23 06:47:26;;;;;;;56.33;29.83;;;-4.50;99.90;;;;;;5089804;28;20678;-60
2021/12/23 06:49:52;;;;;;;55.00;29.98;;;-4.50;99.90;;;;;;5089933;28;20050;-60
2021/12/23 06:52:18;;;;;;;66.47;31.67;;;-4.50;99.90;;;;;;5089845;28;20051;-60
2021/12/23 06:54:47;;;;;;;108.07;30.88;;;-4.50;99.90;;;;;;5089950;28;20552;-60
2021/12/23 06:57:13;;;;;;;58.05;31.80;;;-4.60;99.90;;;;;;5093451;28;20036;-60
2021/12/23 06:59:39;;;;;;;76.47;35.40;;;-4.60;99.90;;;;;;5093681;28;20028;-60
2021/12/23 07:02:05;;;;;;;83.22;34.67;;;-4.60;99.90;;;;;;5075426;28;20042;-60
2021/12/23 07:04:33;;;;;;;88.95;37.17;;;-4.60;99.90;;;;;;5093220;28;20035;-60
2021/12/23 07:07:12;;;;;;;80.95;33.75;;;-4.50;99.90;;;;;;5075139;28;20028;-60
2021/12/23 07:09:42;;;;;;;77.18;35.85;;;-4.60;99.90;;;;;;5093447;28;20104;-60
2021/12/23 07:12:11;;;;;;;112.53;46.00;;;-4.50;99.90;;;;;;5093276;28;20309;-60
2021/12/23 07:14:38;;;;;;;156.57;38.17;;;-4.50;99.90;;;;;;5093308;28;20046;-60
2021/12/23 07:17:04;;;;;;;77.05;31.35;;;-4.50;99.90;;;;;;5093242;28;20027;-60
2021/12/23 07:19:29;;;;;;;84.53;32.42;;;-4.60;99.90;;;;;;5074848;28;20028;-60
2021/12/23 07:21:55;;;;;;;54.55;32.03;;;-4.50;99.90;;;;;;5093210;28;20051;-60
2021/12/23 07:24:21;;;;;;;81.80;33.05;;;-4.50;99.90;;;;;;5092925;28;20368;-60
2021/12/23 07:26:48;;;;;;;88.13;34.00;;;-4.40;99.90;;;;;;5093113;28;20383;-60
2021/12/23 07:29:13;;;;;;;60.08;32.40;;;-4.40;99.90;;;;;;5092922;28;20031;-60
2021/12/23 07:31:39;;;;;;;89.03;32.78;;;-4.40;99.90;;;;;;5092758;28;20020;-60
2021/12/23 07:34:05;;;;;;;71.13;32.50;;;-4.40;99.90;;;;;;5092981;28;20031;-60
2021/12/23 07:36:31;;;;;;;61.80;33.15;;;-4.30;99.90;;;;;;5092699;28;20038;-60
2021/12/23 07:38:57;;;;;;;52.65;28.88;;;-4.30;99.90;;;;;;5092870;28;20020;-60
2021/12/23 07:41:26;;;;;;;64.70;30.27;;;-4.20;99.90;;;;;;5092725;28;20024;-60
2021/12/23 07:44:04;;;;;;;62.38;31.60;;;-4.20;99.90;;;;;;5092797;28;20024;-60
2021/12/23 07:46:37;;;;;;;59.22;31.00;;;-4.20;99.90;;;;;;5092521;28;20066;-60
2021/12/23 07:49:05;;;;;;;51.30;28.48;;;-4.20;99.90;;;;;;5092725;28;20081;-60
2021/12/23 07:51:31;;;;;;;56.63;30.35;;;-4.20;99.90;;;;;;5092445;28;20036;-60
2021/12/23 07:53:57;;;;;;;63.67;31.80;;;-4.20;99.90;;;;;;5092515;28;20028;-60
2021/12/23 07:56:24;;;;;;;60.95;31.63;;;-4.20;99.90;;;;;;5092367;28;20034;-60
2021/12/23 07:58:51;;;;;;;56.75;30.92;;;-4.10;99.90;;;;;;5092472;28;20083;-60
2021/12/23 08:01:18;;;;;;;66.28;33.08;;;-4.00;99.90;;;;;;5092320;28;20020;-60
2021/12/23 08:03:44;;;;;;;56.15;29.52;;;-4.00;99.90;;;;;;5092252;28;20020;-60
2021/12/23 08:06:10;;;;;;;53.15;27.00;;;-4.10;99.90;;;;;;5092156;28;20103;-60
2021/12/23 08:08:36;;;;;;;49.85;28.80;;;-4.10;99.90;;;;;;5091660;28;20008;-60
2021/12/23 08:11:02;;;;;;;51.45;29.38;;;-4.10;99.90;;;;;;5092184;28;20328;-60
2021/12/23 08:13:28;;;;;;;60.10;30.42;;;-4.10;99.90;;;;;;5092201;28;20405;-60
2021/12/23 08:15:54;;;;;;;57.38;30.58;;;-4.10;99.90;;;;;;5092146;28;20525;-60
2021/12/23 08:18:21;;;;;;;83.85;46.13;;;-4.00;99.90;;;;;;5091908;28;20024;-60
2021/12/23 08:20:46;;;;;;;71.35;38.60;;;-4.10;99.90;;;;;;5092048;28;20020;-60
2021/12/23 08:23:12;;;;;;;60.67;33.83;;;-3.90;99.90;;;;;;5091790;28;20487;-60
2021/12/23 08:25:38;;;;;;;49.42;27.40;;;-3.90;99.90;;;;;;5091963;28;20383;-60
2021/12/23 08:28:04;;;;;;;60.13;31.35;;;-3.80;99.90;;;;;;5073625;28;20378;-60
2021/12/23 08:30:29;;;;;;;54.03;28.17;;;-3.70;99.90;;;;;;5091805;28;20047;-60
2021/12/23 08:32:55;;;;;;;50.50;27.52;;;-3.60;99.90;;;;;;5091798;28;20510;-60
2021/12/23 08:35:21;;;;;;;60.15;30.45;;;-3.60;99.90;;;;;;5091625;28;20103;-60
2021/12/23 08:37:48;;;;;;;52.00;31.25;;;-3.60;99.90;;;;;;5091727;28;20029;-60
2021/12/23 08:40:17;;;;;;;55.10;32.95;;;-3.60;99.90;;;;;;5091642;28;20034;-60
2021/12/23 08:42:43;;;;;;;48.20;27.48;;;-3.60;99.90;;;;;;5091594;28;20032;-60
2021/12/23 08:45:09;;;;;;;55.85;30.58;;;-3.60;99.90;;;;;;5091376;28;20111;-60
2021/12/23 08:47:36;;;;;;;53.85;30.08;;;-3.60;99.90;;;;;;5091565;28;20044;-60
2021/12/23 08:50:07;;;;;;;50.13;28.52;;;-3.50;99.90;;;;;;5091430;28;20028;-60
2021/12/23 08:52:33;;;;;;;50.03;28.55;;;-3.50;99.90;;;;;;5073289;28;20490;-60
2021/12/23 08:54:59;;;;;;;55.65;28.15;;;-3.50;99.90;;;;;;5091251;28;20062;-60
2021/12/23 08:57:24;;;;;;;52.92;29.35;;;-3.40;99.90;;;;;;5091401;28;20012;-60
2021/12/23 08:59:50;;;;;;;53.72;29.40;;;-3.20;99.90;;;;;;5091285;28;20498;-60
2021/12/23 09:02:16;;;;;;;50.22;28.42;;;-3.10;99.90;;;;;;5090991;28;20055;-60
2021/12/23 09:04:42;;;;;;;51.65;28.23;;;-3.10;99.90;;;;;;5091251;28;20020;-60
2021/12/23 09:07:09;;;;;;;59.78;30.95;;;-3.20;99.90;;;;;;5091048;28;20028;-60
2021/12/23 09:09:36;;;;;;;54.50;30.42;;;-3.20;99.90;;;;;;5091152;28;20016;-60
2021/12/23 09:12:04;;;;;;;55.13;29.25;;;-3.30;99.90;;;;;;5091179;28;20013;-60
2021/12/23 09:14:32;;;;;;;61.13;35.40;;;-3.20;99.90;;;;;;5091013;28;20522;-60
2021/12/23 09:16:58;;;;;;;44.72;28.13;;;-3.10;99.90;;;;;;5090990;28;20111;-60
2021/12/23 09:19:24;;;;;;;50.30;29.08;;;-3.10;99.90;;;;;;5090846;28;20535;-60
2021/12/23 09:21:50;;;;;;;53.08;28.40;;;-2.90;99.90;;;;;;5090817;28;20023;-60
2021/12/23 09:24:16;;;;;;;55.40;29.95;;;-2.90;99.90;;;;;;5090730;28;20024;-60
2021/12/23 09:26:54;;;;;;;54.25;29.45;;;-2.90;99.90;;;;;;5090814;28;20016;-60
2021/12/23 09:34:56;;;;;;;46.95;28.27;;;-2.80;99.90;;;;;;5091074;28;20043;-61
2021/12/23 09:37:24;;;;;;;52.35;29.58;;;-2.60;99.90;;;;;;5090738;28;20012;-60
2021/12/23 09:39:54;;;;;;;49.55;26.83;;;-2.60;99.90;;;;;;5090719;28;20028;-60
2021/12/23 09:42:27;;;;;;;49.20;29.13;;;-2.60;99.90;;;;;;5090500;28;20039;-60
2021/12/23 09:45:00;;;;;;;54.30;30.50;;;-2.50;99.90;;;;;;5090534;28;20016;-60
2021/12/23 09:47:27;;;;;;;56.83;30.38;;;-2.50;99.90;;;;;;5072386;28;20355;-60
2021/12/23 09:49:54;;;;;;;48.30;27.48;;;-2.40;99.90;;;;;;5090529;28;20036;-60
2021/12/23 09:52:22;;;;;;;48.55;27.00;;;-2.40;99.90;;;;;;5090561;28;20111;-60
2021/12/23 09:54:49;;;;;;;48.00;27.80;;;-2.20;99.90;;;;;;5090337;28;20467;-60
2021/12/23 09:57:15;;;;;;;47.78;26.67;;;-2.20;99.90;;;;;;5090471;28;20411;-60
2021/12/23 09:59:43;;;;;;;50.47;29.90;;;-2.10;99.90;;;;;;5072272;28;20032;-60
2021/12/23 10:02:09;;;;;;;43.28;27.77;;;-1.90;99.90;;;;;;5090130;28;20090;-60
2021/12/23 10:04:35;;;;;;;53.65;28.17;;;-2.00;99.90;;;;;;5090448;28;20085;-61
2021/12/23 10:07:01;;;;;;;43.65;27.52;;;-2.00;99.90;;;;;;5090503;28;20387;-60
2021/12/23 10:13:01;;;;;;;50.55;27.65;;;-1.30;99.90;;;;;;5090515;28;20020;-60
2021/12/23 10:32:00;;;;;;;45.40;24.73;;;-0.30;99.90;;;;;;5093431;28;20030;-60
2021/12/23 10:37:17;;;;;;;43.92;27.98;;;-0.20;99.90;;;;;;5093892;28;20383;-60
2021/12/23 10:39:46;;;;;;;48.75;28.38;;;0.50;99.90;;;;;;5075259;28;20032;-61
2021/12/23 10:42:15;;;;;;;50.78;28.33;;;0.80;99.90;;;;;;5093862;28;20558;-60
2021/12/23 10:44:53;;;;;;;47.33;27.70;;;0.50;99.90;;;;;;5093912;28;20032;-60
2021/12/23 10:47:35;;;;;;;45.45;26.40;;;1.00;99.90;;;;;;5092368;28;20035;-60
2021/12/23 10:50:45;;;;;;;75.25;37.75;;;1.20;99.90;;;;;;5092467;28;20016;-60
2021/12/23 10:59:26;;;;;;;57.42;25.98;;;2.70;99.90;;;;;;5093483;28;20095;-61
2021/12/23 11:02:16;;;;;;;41.40;26.17;;;2.80;99.90;;;;;;5093645;28;20103;-60
2021/12/23 11:05:04;;;;;;;45.50;25.02;;;3.70;97.80;;;;;;5093342;28;20028;-61
2021/12/23 11:07:55;;;;;;;44.15;26.63;;;3.80;96.70;;;;;;5093358;28;20085;-61
2021/12/23 11:27:32;;;;;;;52.03;31.73;;;2.90;96.20;;;;;;5093068;28;20093;-60
2021/12/23 11:38:39;;;;;;;52.83;27.27;;;1.90;99.90;;;;;;5092579;28;20111;-60
2021/12/23 11:41:20;;;;;;;42.13;26.75;;;2.90;99.90;;;;;;5092715;28;20110;-60
2021/12/23 11:43:50;;;;;;;44.83;27.15;;;2.80;99.90;;;;;;5091421;28;20153;-60
2021/12/23 11:46:20;;;;;;;44.35;26.58;;;3.10;99.00;;;;;;5092371;28;20027;-60
2021/12/23 11:48:51;;;;;;;44.65;25.45;;;3.50;97.90;;;;;;5074389;28;20447;-61
2021/12/23 11:51:21;;;;;;;44.00;26.95;;;3.40;97.40;;;;;;5092554;28;20425;-60
2021/12/23 11:53:49;;;;;;;53.05;27.48;;;2.90;99.30;;;;;;5092005;28;20107;-61
2021/12/23 11:56:18;;;;;;;49.10;28.77;;;2.80;99.20;;;;;;5092253;28;20024;-60
2021/12/23 11:58:47;;;;;;;45.92;28.00;;;3.00;98.70;;;;;;5092310;28;20028;-60
2021/12/23 12:01:17;;;;;;;48.88;27.23;;;2.90;98.60;;;;;;5092260;28;20020;-60
2021/12/23 12:03:57;;;;;;;46.40;26.85;;;2.80;99.10;;;;;;5092129;28;20317;-61
2021/12/23 12:06:30;;;;;;;58.55;31.75;;;1.80;99.90;;;;;;5091636;28;20022;-60
2021/12/23 12:09:12;;;;;;;58.90;32.25;;;1.50;99.90;;;;;;5092176;28;20054;-61
2021/12/23 12:11:38;;;;;;;47.67;29.33;;;1.10;99.90;;;;;;5092046;28;20028;-60
2021/12/23 12:14:25;;;;;;;48.15;29.55;;;0.90;99.90;;;;;;5091983;28;20042;-61
2021/12/23 12:16:50;;;;;;;48.58;27.42;;;0.90;99.90;;;;;;5091935;28;20107;-60
2021/12/23 12:19:16;;;;;;;51.83;29.67;;;0.90;99.90;;;;;;5091773;28;20149;-60
2021/12/23 12:21:43;;;;;;;50.35;29.38;;;1.00;99.90;;;;;;5092158;28;20027;-60
2021/12/23 12:24:15;;;;;;;50.88;26.23;;;1.10;99.90;;;;;;5091628;28;20086;-61
2021/12/23 12:26:56;;;;;;;48.13;27.25;;;1.30;99.90;;;;;;5092158;28;20089;-60
2021/12/23 12:29:37;;;;;;;52.42;30.17;;;1.40;99.90;;;;;;5091425;28;20016;-61
2021/12/23 12:32:05;;;;;;;54.55;26.88;;;1.50;99.90;;;;;;5091876;28;20043;-60
2021/12/23 12:34:36;;;;;;;48.05;27.10;;;1.80;99.90;;;;;;5091555;28;20077;-61
2021/12/23 12:37:05;;;;;;;47.72;25.85;;;2.50;99.90;;;;;;5091614;28;20024;-61
2021/12/23 12:39:31;;;;;;;50.85;28.23;;;2.60;99.90;;;;;;5091325;28;20024;-61
2021/12/23 12:42:04;;;;;;;67.55;35.90;;;2.30;99.90;;;;;;5073298;28;20036;-61
2021/12/23 12:44:49;;;;;;;61.45;31.00;;;2.00;99.90;;;;;;5091241;28;20027;-61
2021/12/23 12:47:26;;;;;;;63.05;31.05;;;1.70;99.90;;;;;;5091254;28;20453;-61
2021/12/23 12:50:14;;;;;;;78.85;36.20;;;1.40;99.90;;;;;;5091306;28;20119;-60
2021/12/23 12:52:48;;;;;;;59.22;30.90;;;1.50;99.90;;;;;;5091297;28;20032;-61
2021/12/23 12:55:27;;;;;;;72.53;32.78;;;1.80;99.90;;;;;;5069186;28;20527;-60
2021/12/23 12:58:03;;;;;;;56.65;30.30;;;1.70;99.90;;;;;;5071132;28;20386;-60
2021/12/23 13:00:39;;;;;;;46.65;27.67;;;1.60;99.90;;;;;;5070690;28;20027;-59
2021/12/23 13:03:19;;;;;;;50.60;29.98;;;1.50;99.90;;;;;;5070898;28;20391;-60
2021/12/23 13:05:53;;;;;;;52.72;28.38;;;1.30;99.90;;;;;;5070727;28;20016;-60
2021/12/23 13:08:18;;;;;;;;;;;1.30;99.90;;;;;;5069889;28;20081;-61
2021/12/23 13:10:48;;;;;;;53.97;28.55;;;1.40;99.90;;;;;;5070637;28;20278;-60
2021/12/23 13:13:33;;;;;;;51.58;29.58;;;1.60;99.90;;;;;;5070563;28;20017;-61
2021/12/23 13:16:15;;;;;;;48.03;28.67;;;1.70;99.90;;;;;;5070493;28;20039;-60
2021/12/23 13:18:41;;;;;;;47.80;27.45;;;1.70;99.90;;;;;;5069419;28;20112;-58
2021/12/23 13:21:08;;;;;;;58.08;29.35;;;2.10;99.90;;;;;;5070420;28;20226;-61
2021/12/23 13:23:37;;;;;;;45.88;29.75;;;2.30;99.90;;;;;;5069082;28;20051;-61
2021/12/23 13:26:10;;;;;;;50.75;29.50;;;2.30;99.90;;;;;;5070630;28;20414;-60
2021/12/23 13:28:38;;;;;;;52.70;28.88;;;2.10;99.90;;;;;;5070554;28;20387;-60
2021/12/23 13:31:21;;;;;;;49.92;28.48;;;1.90;99.90;;;;;;5070460;28;20452;-60
2021/12/23 13:33:55;;;;;;;54.92;30.17;;;1.90;99.90;;;;;;5070563;28;20364;-61
2021/12/23 13:36:26;;;;;;;54.92;30.85;;;1.60;99.90;;;;;;5070106;28;20499;-61
2021/12/23 13:38:55;;;;;;;50.45;30.08;;;1.50;99.90;;;;;;5070462;28;20438;-61
2021/12/23 13:41:30;;;;;;;49.35;29.33;;;1.30;99.90;;;;;;5070286;28;20063;-61
2021/12/23 13:44:00;;;;;;;49.90;26.90;;;1.20;99.90;;;;;;5070129;28;20047;-61
2021/12/23 13:46:28;;;;;;;46.15;27.70;;;0.90;99.90;;;;;;5069889;28;20066;-61
2021/12/23 13:48:58;;;;;;;47.85;27.98;;;0.80;99.90;;;;;;5070185;28;20407;-61
2021/12/23 13:51:28;;;;;;;51.50;29.30;;;0.70;99.90;;;;;;5066731;28;20023;-61
2021/12/23 13:54:23;;;;;;;49.90;30.15;;;0.70;99.90;;;;;;5071579;28;20032;-61
2021/12/23 13:56:51;;;;;;;48.50;30.05;;;0.50;99.90;;;;;;5076919;28;20383;-61
2021/12/23 13:59:17;;;;;;;54.97;30.63;;;0.40;99.90;;;;;;5082405;28;20039;-61
2021/12/23 14:01:52;;;;;;;57.08;32.45;;;0.40;99.90;;;;;;5069567;28;20017;-60
2021/12/23 14:04:38;;;;;;;65.43;34.00;;;0.30;99.90;;;;;;5069437;28;20025;-61
2021/12/23 14:07:09;;;;;;;55.70;32.10;;;0.30;99.90;;;;;;5073580;28;20391;-60
2021/12/23 14:09:44;;;;;;;61.70;34.20;;;0.30;99.90;;;;;;5074314;28;20446;-61
2021/12/23 14:12:14;;;;;;;59.08;34.40;;;0.30;99.90;;;;;;5074009;28;20054;-61
2021/12/23 14:14:58;;;;;;;60.90;33.78;;;0.20;99.90;;;;;;5056863;28;20498;-61
2021/12/23 14:17:32;;;;;;;56.10;32.83;;;0.20;99.90;;;;;;5056311;28;20048;-61
2021/12/23 14:23:12;;;;;;;58.92;32.75;;;0.20;99.90;;;;;;5074494;28;20090;-60
2021/12/23 14:25:53;;;;;;;51.85;30.52;;;0.10;99.90;;;;;;5056046;28;20025;-61
2021/12/23 14:28:42;;;;;;;56.95;29.63;;;0.10;99.90;;;;;;5073741;28;20021;-61
2021/12/23 14:31:19;;;;;;;54.92;31.55;;;0.10;99.90;;;;;;5073892;28;20499;-61